Maran Sagitta — SVAQ6 — position and weather

sailwx.info

Track history (hours):
 
Tides and Currents Weather Stations Pressure Air Temp Water Temp Dewpoint Dewpoint Depression Visibility Wind Speed Wind Dir Waves Ship Positions

Maran Sagitta

Last reported at 2018-Jun-09 21:03 UTC. Time now 2018-Jun-20 11:03 UTC.
Position N 29°10' W 094°28'.
Warning: this ship's position is 10 days out of date.

Length 244 m; draft 9.1 m.

Type: Tanker. MMSI: 240892000.

Date/timePositionNaut miles runAvg speedWind from/ knotsBaromVisibWave heightAir tempDewpointWater temp
2018-Jun-09 21:03N 29°10' W 094°28'2811.5
2018-Jun-09 18:39N 29°29' W 094°51'211.3
2018-Jun-09 18:26N 29°31' W 094°53'511.2
2018-Jun-09 18:00N 29°35' W 094°56'510.3
2018-Jun-09 17:30N 29°40' W 094°58'4 8.6
2018-Jun-09 16:59N 29°43' W 095°01'1 0.0
2018-Jun-08 00:23N 29°44' W 095°01'0 0.5
2018-Jun-08 00:00N 29°44' W 095°01'3 5.6
2018-Jun-07 23:30N 29°41' W 094°59'4 8.6
2018-Jun-07 23:00N 29°37' W 094°58'510.0
2018-Jun-07 22:30N 29°33' W 094°55'510.7
2018-Jun-07 22:00N 29°29' W 094°51'510.7
2018-Jun-07 21:30N 29°24' W 094°49'5 9.4
2018-Jun-07 21:00N 29°21' W 094°45'611.2
2018-Jun-07 20:30N 29°19' W 094°39'611.1
2018-Jun-07 19:58N 29°15' W 094°33'510.3
2018-Jun-07 19:28N 29°12' W 094°29'4 7.5
2018-Jun-07 18:57N 29°08' W 094°28'0 0.0
2018-Jun-07 04:41N 29°08' W 094°29'0 0.1
2018-Jun-07 04:17N 29°08' W 094°29'0 0.4
2018-Jun-07 04:00N 29°08' W 094°29'2 4.0
2018-Jun-07 03:31N 29°06' W 094°27'4 7.9
2018-Jun-07 03:00N 29°03' W 094°26'611.5
2018-Jun-07 02:27N 28°56' W 094°25'1312.9
2018-Jun-07 01:27N 28°43' W 094°25'612.9
2018-Jun-07 01:00N 28°38' W 094°25'713.1
2018-Jun-07 00:29N 28°31' W 094°25'713.1
2018-Jun-06 23:58N 28°24' W 094°25'1512.8
2018-Jun-06 22:48N 28°09' W 094°25'  
2018-Jun-01 00:46N 29°09' W 094°28'813.2
2018-Jun-01 00:11N 29°14' W 094°34'212.7
2018-Jun-01 00:00N 29°17' W 094°35'510.3
2018-May-31 23:28N 29°20' W 094°40'4 7.3
2018-May-31 22:58N 29°21' W 094°44'0 0.1
2018-May-31 22:28N 29°21' W 094°44'0 0.0
2018-May-31 21:58N 29°21' W 094°44'0 0.0
2018-May-31 21:28N 29°21' W 094°44'0 0.0
2018-May-31 20:58N 29°21' W 094°44'0 0.1
2018-May-31 20:28N 29°21' W 094°44'0 0.1
2018-May-31 19:58N 29°21' W 094°44'0 0.1
2018-May-31 19:28N 29°21' W 094°44'0 0.0
2018-May-31 18:58N 29°21' W 094°44'0 0.1
2018-May-31 18:25N 29°21' W 094°44'0 0.0
2018-May-31 17:58N 29°21' W 094°44'0 0.1
2018-May-31 17:25N 29°21' W 094°44'0 0.0
2018-May-31 16:16N 29°21' W 094°44'0 0.0
2018-May-31 15:52N 29°21' W 094°44'0 0.0
2018-May-31 15:22N 29°21' W 094°44'0 0.0
2018-May-31 14:16N 29°21' W 094°44'0 0.0
2018-May-31 13:49N 29°21' W 094°44'0 0.0
2018-May-31 13:25N 29°21' W 094°44'0 0.0
2018-May-31 12:58N 29°21' W 094°44'0 0.0
2018-May-31 12:25N 29°21' W 094°44'0 0.0
2018-May-31 11:58N 29°21' W 094°44'0 0.0
2018-May-31 11:28N 29°21' W 094°44'0 0.0
2018-May-31 10:52N 29°21' W 094°44'0 0.0
2018-May-31 10:28N 29°21' W 094°44'0 0.4
2018-May-31 09:59N 29°21' W 094°44'2 5.1
2018-May-31 09:30N 29°20' W 094°41'612.2
2018-May-31 09:00N 29°17' W 094°36'612.6
2018-May-31 08:30N 29°14' W 094°29'6 5.2
2018-May-31 07:20N 29°16' W 094°23'1 1.2
2018-May-31 06:50N 29°16' W 094°22'0 1.1
2018-May-31 06:24N 29°15' W 094°22'1 1.0
2018-May-31 05:51N 29°15' W 094°22'0 1.0
2018-May-31 05:30N 29°15' W 094°21'1 2.8
2018-May-31 05:00N 29°13' W 094°22'611.0
2018-May-31 04:28N 29°08' W 094°25'613.1
2018-May-31 04:00N 29°05' W 094°31'714.5
2018-May-31 03:30N 29°01' W 094°38'713.9
2018-May-31 02:59N 28°57' W 094°45'713.5
2018-May-31 02:31N 28°53' W 094°51'713.9
2018-May-31 02:00N 28°50' W 094°58'713.6
2018-May-31 01:30N 28°46' W 095°05'612.8
2018-May-31 01:00N 28°50' W 095°11'611.4
2018-May-31 00:31N 28°54' W 095°15'4 7.7
2018-May-31 00:01N 28°57' W 095°19'  
Track history (hours):
 
Tides and Currents Weather Stations Pressure Air Temp Water Temp Dewpoint Dewpoint Depression Visibility Wind Speed Wind Dir Waves Ship Positions

Maran Sagitta

Last reported at 2018-Jun-09 21:03 UTC. Time now 2018-Jun-20 11:03 UTC.
Position N 29°10' W 094°28'.
Warning: this ship's position is 10 days out of date.

Length 244 m; draft 9.1 m.

Type: Tanker. MMSI: 240892000.

Date/timePositionNaut miles runAvg speedWind from/ knotsBaromVisibWave heightAir tempDewpointWater temp
2018-Jun-09 21:03N 29°10' W 094°28'2811.5
2018-Jun-09 18:39N 29°29' W 094°51'211.3
2018-Jun-09 18:26N 29°31' W 094°53'511.2
2018-Jun-09 18:00N 29°35' W 094°56'510.3
2018-Jun-09 17:30N 29°40' W 094°58'4 8.6
2018-Jun-09 16:59N 29°43' W 095°01'1 0.0
2018-Jun-08 00:23N 29°44' W 095°01'0 0.5
2018-Jun-08 00:00N 29°44' W 095°01'3 5.6
2018-Jun-07 23:30N 29°41' W 094°59'4 8.6
2018-Jun-07 23:00N 29°37' W 094°58'510.0
2018-Jun-07 22:30N 29°33' W 094°55'510.7
2018-Jun-07 22:00N 29°29' W 094°51'510.7
2018-Jun-07 21:30N 29°24' W 094°49'5 9.4
2018-Jun-07 21:00N 29°21' W 094°45'611.2
2018-Jun-07 20:30N 29°19' W 094°39'611.1
2018-Jun-07 19:58N 29°15' W 094°33'510.3
2018-Jun-07 19:28N 29°12' W 094°29'4 7.5
2018-Jun-07 18:57N 29°08' W 094°28'0 0.0
2018-Jun-07 04:41N 29°08' W 094°29'0 0.1
2018-Jun-07 04:17N 29°08' W 094°29'0 0.4
2018-Jun-07 04:00N 29°08' W 094°29'2 4.0
2018-Jun-07 03:31N 29°06' W 094°27'4 7.9
2018-Jun-07 03:00N 29°03' W 094°26'611.5
2018-Jun-07 02:27N 28°56' W 094°25'1312.9
2018-Jun-07 01:27N 28°43' W 094°25'612.9
2018-Jun-07 01:00N 28°38' W 094°25'713.1
2018-Jun-07 00:29N 28°31' W 094°25'713.1
2018-Jun-06 23:58N 28°24' W 094°25'1512.8
2018-Jun-06 22:48N 28°09' W 094°25'  
2018-Jun-01 00:46N 29°09' W 094°28'813.2
2018-Jun-01 00:11N 29°14' W 094°34'212.7
2018-Jun-01 00:00N 29°17' W 094°35'510.3
2018-May-31 23:28N 29°20' W 094°40'4 7.3
2018-May-31 22:58N 29°21' W 094°44'0 0.1
2018-May-31 22:28N 29°21' W 094°44'0 0.0
2018-May-31 21:58N 29°21' W 094°44'0 0.0
2018-May-31 21:28N 29°21' W 094°44'0 0.0
2018-May-31 20:58N 29°21' W 094°44'0 0.1
2018-May-31 20:28N 29°21' W 094°44'0 0.1
2018-May-31 19:58N 29°21' W 094°44'0 0.1
2018-May-31 19:28N 29°21' W 094°44'0 0.0
2018-May-31 18:58N 29°21' W 094°44'0 0.1
2018-May-31 18:25N 29°21' W 094°44'0 0.0
2018-May-31 17:58N 29°21' W 094°44'0 0.1
2018-May-31 17:25N 29°21' W 094°44'0 0.0
2018-May-31 16:16N 29°21' W 094°44'0 0.0
2018-May-31 15:52N 29°21' W 094°44'0 0.0
2018-May-31 15:22N 29°21' W 094°44'0 0.0
2018-May-31 14:16N 29°21' W 094°44'0 0.0
2018-May-31 13:49N 29°21' W 094°44'0 0.0
2018-May-31 13:25N 29°21' W 094°44'0 0.0
2018-May-31 12:58N 29°21' W 094°44'0 0.0
2018-May-31 12:25N 29°21' W 094°44'0 0.0
2018-May-31 11:58N 29°21' W 094°44'0 0.0
2018-May-31 11:28N 29°21' W 094°44'0 0.0
2018-May-31 10:52N 29°21' W 094°44'0 0.0
2018-May-31 10:28N 29°21' W 094°44'0 0.4
2018-May-31 09:59N 29°21' W 094°44'2 5.1
2018-May-31 09:30N 29°20' W 094°41'612.2
2018-May-31 09:00N 29°17' W 094°36'612.6
2018-May-31 08:30N 29°14' W 094°29'6 5.2
2018-May-31 07:20N 29°16' W 094°23'1 1.2
2018-May-31 06:50N 29°16' W 094°22'0 1.1
2018-May-31 06:24N 29°15' W 094°22'1 1.0
2018-May-31 05:51N 29°15' W 094°22'0 1.0
2018-May-31 05:30N 29°15' W 094°21'1 2.8
2018-May-31 05:00N 29°13' W 094°22'611.0
2018-May-31 04:28N 29°08' W 094°25'613.1
2018-May-31 04:00N 29°05' W 094°31'714.5
2018-May-31 03:30N 29°01' W 094°38'713.9
2018-May-31 02:59N 28°57' W 094°45'713.5
2018-May-31 02:31N 28°53' W 094°51'713.9
2018-May-31 02:00N 28°50' W 094°58'713.6
2018-May-31 01:30N 28°46' W 095°05'612.8
2018-May-31 01:00N 28°50' W 095°11'611.4
2018-May-31 00:31N 28°54' W 095°15'4 7.7
2018-May-31 00:01N 28°57' W 095°19'  

Dump ship's entire track history